createdAt,value
2018-03-24T00:00:05.836Z,99.68
2018-03-24T00:01:05.871Z,99.99
2018-03-24T00:02:05.908Z,99.99
2018-03-24T00:03:05.932Z,99.99
2018-03-24T00:04:05.967Z,99.99
2018-03-24T00:05:06.003Z,99.99
2018-03-24T00:06:06.027Z,99.99
2018-03-24T00:07:06.065Z,99.99
2018-03-24T00:08:06.105Z,99.99
2018-03-24T00:09:06.154Z,99.99
2018-03-24T00:10:06.157Z,99.99
2018-03-24T00:11:06.184Z,99.99
2018-03-24T00:12:06.219Z,99.99
2018-03-24T00:13:06.253Z,99.99
2018-03-24T00:14:06.294Z,99.99
2018-03-24T00:15:06.313Z,99.99
2018-03-24T00:16:06.457Z,99.99
2018-03-24T00:17:06.378Z,99.99
2018-03-24T00:18:06.410Z,99.99
2018-03-24T00:19:06.446Z,99.99
2018-03-24T00:20:06.474Z,99.99
2018-03-24T00:21:06.516Z,99.99
2018-03-24T00:22:06.534Z,99.99
2018-03-24T00:23:06.569Z,99.99
2018-03-24T00:24:06.635Z,99.99
2018-03-24T00:25:06.634Z,99.99
2018-03-24T00:26:06.662Z,99.99
2018-03-24T00:27:06.698Z,99.99
2018-03-24T00:28:06.729Z,99.99
2018-03-24T00:29:06.760Z,99.99
2018-03-24T00:30:06.790Z,99.99
2018-03-24T00:31:06.831Z,99.99
2018-03-24T00:32:06.914Z,99.99
2018-03-24T00:33:06.890Z,99.99
2018-03-24T00:34:06.917Z,99.99
2018-03-24T00:35:06.964Z,99.99
2018-03-24T00:36:06.980Z,99.99
2018-03-24T00:37:07.016Z,99.99
2018-03-24T00:38:07.050Z,99.99
2018-03-24T00:39:07.084Z,99.99
2018-03-24T00:40:07.109Z,99.99
2018-03-24T00:41:07.140Z,99.99
2018-03-24T00:42:07.168Z,99.99
2018-03-24T00:43:07.200Z,99.99
2018-03-24T00:44:07.240Z,99.99
2018-03-24T00:45:07.266Z,99.99
2018-03-24T00:46:07.297Z,99.99
2018-03-24T00:47:07.332Z,99.99
2018-03-24T00:48:07.361Z,99.99
2018-03-24T00:49:07.400Z,99.99
2018-03-24T00:50:07.423Z,99.99
2018-03-24T00:51:07.472Z,99.99
2018-03-24T00:52:07.499Z,99.99
2018-03-24T00:53:07.519Z,99.99
2018-03-24T00:54:07.549Z,99.99
2018-03-24T00:55:07.583Z,99.99
2018-03-24T00:56:07.612Z,99.99
2018-03-24T00:57:07.647Z,99.99
2018-03-24T00:58:07.678Z,99.99
2018-03-24T00:59:07.716Z,99.99
2018-03-24T01:00:07.740Z,99.99
2018-03-24T01:01:07.771Z,99.99
2018-03-24T01:02:07.805Z,99.99
2018-03-24T01:03:07.847Z,99.99
2018-03-24T01:04:07.868Z,99.99
2018-03-24T01:05:07.900Z,99.99
2018-03-24T01:06:07.930Z,99.99
2018-03-24T01:07:07.969Z,99.99
2018-03-24T01:08:07.997Z,99.99
2018-03-24T01:09:08.025Z,99.99
2018-03-24T01:10:08.082Z,99.99
2018-03-24T01:11:08.146Z,99.99
2018-03-24T01:12:08.119Z,99.99
2018-03-24T01:13:08.154Z,99.99
2018-03-24T01:14:08.183Z,99.99
2018-03-24T01:15:08.220Z,99.99
2018-03-24T01:16:08.256Z,99.99
2018-03-24T01:17:08.281Z,99.99
2018-03-24T01:18:08.311Z,99.99
2018-03-24T01:19:08.343Z,99.99
2018-03-24T01:20:08.378Z,99.99
2018-03-24T01:21:08.407Z,99.99
2018-03-24T01:22:08.442Z,99.99
2018-03-24T01:23:08.469Z,99.99
2018-03-24T01:24:08.501Z,99.99
2018-03-24T01:25:08.541Z,99.99
2018-03-24T01:26:08.563Z,99.99
2018-03-24T01:27:08.593Z,99.99
2018-03-24T01:28:08.631Z,99.99
2018-03-24T01:29:08.660Z,99.99
2018-03-24T01:30:08.689Z,99.99
2018-03-24T01:31:08.721Z,99.99
2018-03-24T01:32:08.752Z,99.99
2018-03-24T01:33:08.789Z,99.99
2018-03-24T01:34:08.815Z,99.99
2018-03-24T01:35:08.914Z,99.99
2018-03-24T01:36:08.882Z,99.99
2018-03-24T01:37:08.917Z,99.99
2018-03-24T01:38:08.942Z,99.99
2018-03-24T01:39:08.981Z,99.99
2018-03-24T01:40:09.008Z,99.99
2018-03-24T01:41:09.039Z,99.99
2018-03-24T01:42:09.072Z,99.99
2018-03-24T01:43:09.104Z,99.99
2018-03-24T01:44:09.134Z,99.99
2018-03-24T01:45:09.169Z,99.99
2018-03-24T01:46:09.198Z,99.99
2018-03-24T01:47:09.230Z,99.99
2018-03-24T01:48:09.264Z,99.99
2018-03-24T01:49:09.295Z,99.99
2018-03-24T01:50:09.327Z,99.99
2018-03-24T01:51:09.357Z,99.99
2018-03-24T01:52:09.439Z,99.99
2018-03-24T01:53:09.419Z,99.99
2018-03-24T01:54:09.463Z,99.99
2018-03-24T01:55:09.483Z,99.99
2018-03-24T01:56:09.517Z,99.99
2018-03-24T01:57:09.544Z,99.99
2018-03-24T01:58:09.577Z,99.99
2018-03-24T01:59:09.612Z,99.99
2018-03-24T02:00:09.645Z,99.99
2018-03-24T02:01:09.675Z,99.99
2018-03-24T02:02:09.707Z,99.99
2018-03-24T02:03:09.740Z,99.99
2018-03-24T02:04:09.767Z,99.99
2018-03-24T02:05:09.797Z,99.99
2018-03-24T02:06:09.831Z,99.99
2018-03-24T02:07:09.864Z,99.99
2018-03-24T02:08:09.895Z,99.99
2018-03-24T02:09:09.927Z,99.99
2018-03-24T02:10:09.956Z,99.99
2018-03-24T02:11:10.021Z,99.99
2018-03-24T02:12:10.021Z,99.99
2018-03-24T02:13:10.053Z,99.99
2018-03-24T02:14:10.089Z,99.99
2018-03-24T02:15:10.116Z,99.99
2018-03-24T02:16:10.151Z,99.99
2018-03-24T02:17:10.181Z,99.99
2018-03-24T02:18:10.251Z,99.99
2018-03-24T02:19:10.243Z,99.99
2018-03-24T02:20:10.281Z,99.99
2018-03-24T02:21:10.307Z,99.99
2018-03-24T02:22:10.337Z,99.99
2018-03-24T02:23:10.369Z,99.99
2018-03-24T02:24:10.400Z,99.99
2018-03-24T02:25:10.433Z,99.99
2018-03-24T02:26:10.463Z,99.99
2018-03-24T02:27:10.499Z,99.99
2018-03-24T02:28:10.554Z,99.99
2018-03-24T02:29:10.561Z,99.99
2018-03-24T02:30:10.592Z,99.99
2018-03-24T02:31:10.630Z,99.99
2018-03-24T02:32:10.655Z,99.99
2018-03-24T02:33:10.689Z,99.99
2018-03-24T02:34:10.725Z,99.99
2018-03-24T02:35:10.763Z,99.99
2018-03-24T02:36:10.780Z,99.99
2018-03-24T02:37:10.818Z,99.99
2018-03-24T02:38:10.845Z,99.99
2018-03-24T02:39:10.882Z,99.99
2018-03-24T02:40:10.910Z,99.99
2018-03-24T02:41:10.939Z,99.99
2018-03-24T02:42:10.985Z,99.99
2018-03-24T02:43:11.011Z,99.99
2018-03-24T02:44:11.034Z,99.99
2018-03-24T02:45:11.064Z,99.99
2018-03-24T02:46:11.100Z,99.99
2018-03-24T02:47:11.130Z,99.99
2018-03-24T02:48:11.166Z,99.99
2018-03-24T02:49:11.195Z,99.99
2018-03-24T02:50:11.224Z,99.99
2018-03-24T02:51:11.256Z,99.99
2018-03-24T02:52:11.292Z,99.99
2018-03-24T02:53:11.321Z,99.99
2018-03-24T02:54:11.361Z,99.99
2018-03-24T02:55:11.386Z,99.99
2018-03-24T02:56:11.415Z,99.99
2018-03-24T02:57:11.451Z,99.99
2018-03-24T02:58:11.477Z,99.99
2018-03-24T02:59:11.510Z,99.99
2018-03-24T03:00:11.542Z,99.99
2018-03-24T03:01:11.574Z,99.99
2018-03-24T03:02:11.606Z,99.99
2018-03-24T03:03:11.640Z,99.99
2018-03-24T03:04:11.673Z,99.99
2018-03-24T03:05:11.703Z,99.99
2018-03-24T03:06:11.734Z,99.99
2018-03-24T03:07:11.762Z,99.99
2018-03-24T03:08:11.794Z,99.99
2018-03-24T03:09:11.825Z,99.99
2018-03-24T03:10:11.855Z,99.99
2018-03-24T03:11:11.987Z,99.99
2018-03-24T03:12:11.919Z,99.99
2018-03-24T03:13:11.966Z,99.99
2018-03-24T03:14:11.983Z,99.99
2018-03-24T03:15:12.012Z,99.99
2018-03-24T03:16:12.046Z,99.99
2018-03-24T03:17:12.075Z,99.99
2018-03-24T03:18:12.120Z,99.99
2018-03-24T03:19:12.138Z,99.99
2018-03-24T03:20:12.173Z,99.99
2018-03-24T03:21:12.203Z,99.99
2018-03-24T03:22:12.233Z,99.99
2018-03-24T03:23:12.269Z,99.99
2018-03-24T03:24:12.299Z,99.99
2018-03-24T03:25:12.329Z,99.99
2018-03-24T03:26:12.365Z,99.99
2018-03-24T03:27:12.394Z,99.99
2018-03-24T03:28:12.489Z,99.99
2018-03-24T03:29:12.454Z,99.99
2018-03-24T03:30:12.486Z,99.99
2018-03-24T03:31:12.521Z,99.99
2018-03-24T03:32:12.550Z,99.99
2018-03-24T03:33:12.579Z,99.99
2018-03-24T03:34:12.630Z,99.99
2018-03-24T03:35:12.646Z,99.99
2018-03-24T03:36:12.677Z,99.99
2018-03-24T03:37:12.707Z,99.99
2018-03-24T03:38:12.746Z,99.99
2018-03-24T03:39:12.777Z,99.99
2018-03-24T03:40:12.856Z,99.99
2018-03-24T03:41:12.831Z,99.99
2018-03-24T03:42:12.864Z,99.99
2018-03-24T03:43:12.897Z,99.99
2018-03-24T03:44:12.929Z,99.99
2018-03-24T03:45:12.967Z,99.99
2018-03-24T03:46:12.992Z,99.99
2018-03-24T03:47:13.129Z,99.99
2018-03-24T03:48:13.057Z,99.99
2018-03-24T03:49:13.103Z,99.99
2018-03-24T03:50:13.117Z,99.99
2018-03-24T03:51:13.151Z,99.99
2018-03-24T03:52:13.180Z,99.99
2018-03-24T03:53:13.213Z,99.99
2018-03-24T03:54:13.362Z,99.99
2018-03-24T03:55:13.274Z,99.99
2018-03-24T03:56:13.307Z,99.99
2018-03-24T03:57:13.344Z,99.99
2018-03-24T03:58:13.370Z,99.99
2018-03-24T03:59:13.397Z,99.99
2018-03-24T04:00:13.429Z,99.99
2018-03-24T04:01:13.463Z,99.99
2018-03-24T04:02:13.490Z,99.99
2018-03-24T04:03:13.523Z,99.99
2018-03-24T04:04:13.558Z,99.99
2018-03-24T04:05:13.588Z,99.99
2018-03-24T04:06:13.618Z,99.99
2018-03-24T04:07:13.651Z,99.99
2018-03-24T04:08:13.680Z,99.99
2018-03-24T04:09:13.713Z,99.99
2018-03-24T04:10:13.743Z,99.99
2018-03-24T04:11:13.831Z,99.99
2018-03-24T04:12:13.831Z,99.99
2018-03-24T04:13:13.839Z,99.99
2018-03-24T04:14:13.869Z,99.99
2018-03-24T04:15:13.911Z,99.99
2018-03-24T04:16:13.933Z,99.99
2018-03-24T04:17:13.964Z,99.99
2018-03-24T04:18:14.086Z,99.99
2018-03-24T04:19:14.029Z,99.99
2018-03-24T04:20:14.060Z,99.99
2018-03-24T04:21:14.090Z,99.99
2018-03-24T04:22:14.120Z,99.99
2018-03-24T04:23:14.153Z,99.99
2018-03-24T04:24:14.188Z,99.99
2018-03-24T04:25:14.225Z,99.99
2018-03-24T04:26:14.264Z,99.99
2018-03-24T04:27:14.282Z,99.99
2018-03-24T04:28:14.359Z,99.99
2018-03-24T04:29:14.341Z,99.99
2018-03-24T04:30:14.431Z,99.99
2018-03-24T04:31:14.403Z,99.99
2018-03-24T04:32:14.436Z,99.99
2018-03-24T04:33:14.474Z,99.99
2018-03-24T04:34:14.501Z,99.99
2018-03-24T04:35:14.532Z,99.99
2018-03-24T04:36:14.563Z,99.99
2018-03-24T04:37:14.674Z,99.99
2018-03-24T04:38:14.623Z,99.99
2018-03-24T04:39:14.655Z,99.99
2018-03-24T04:40:14.695Z,99.99
2018-03-24T04:41:14.717Z,99.99
2018-03-24T04:42:14.754Z,99.99
2018-03-24T04:43:14.784Z,99.99
2018-03-24T04:44:14.812Z,99.99
2018-03-24T04:45:14.845Z,99.99
2018-03-24T04:46:14.875Z,99.99
2018-03-24T04:47:14.907Z,99.99
2018-03-24T04:48:14.973Z,99.99
2018-03-24T04:49:14.977Z,99.99
2018-03-24T04:50:14.999Z,99.99
2018-03-24T04:51:15.035Z,99.99
2018-03-24T04:52:15.063Z,99.99
2018-03-24T04:53:15.096Z,99.99
2018-03-24T04:54:15.145Z,99.99
2018-03-24T04:55:15.159Z,99.99
2018-03-24T04:56:15.216Z,99.99
2018-03-24T04:57:15.224Z,99.99
2018-03-24T04:58:15.253Z,99.99
2018-03-24T04:59:15.284Z,99.99
2018-03-24T05:00:15.316Z,99.99
2018-03-24T05:01:15.390Z,99.99
2018-03-24T05:02:15.377Z,99.99
2018-03-24T05:03:15.411Z,99.99
2018-03-24T05:04:15.457Z,99.99
2018-03-24T05:05:15.474Z,99.99
2018-03-24T05:06:15.505Z,99.99
2018-03-24T05:07:15.534Z,99.99
2018-03-24T05:08:15.564Z,99.99
2018-03-24T05:09:15.602Z,99.99
2018-03-24T05:10:15.627Z,99.99
2018-03-24T05:11:15.664Z,99.99
2018-03-24T05:12:15.704Z,99.99
2018-03-24T05:13:15.726Z,99.99
2018-03-24T05:14:15.755Z,99.99
2018-03-24T05:15:15.785Z,99.99
2018-03-24T05:16:15.816Z,99.99
2018-03-24T05:17:15.848Z,99.99
2018-03-24T05:18:15.894Z,99.99
2018-03-24T05:19:15.909Z,99.99
2018-03-24T05:20:15.961Z,99.99
2018-03-24T05:21:15.979Z,99.99
2018-03-24T05:22:16.005Z,99.99
2018-03-24T05:23:16.039Z,99.99
2018-03-24T05:24:16.139Z,99.99
2018-03-24T05:25:16.099Z,99.99
2018-03-24T05:26:16.190Z,99.99
2018-03-24T05:27:16.161Z,99.99
2018-03-24T05:28:16.197Z,99.99
2018-03-24T05:29:16.227Z,99.99
2018-03-24T05:30:16.264Z,99.99
2018-03-24T05:31:16.291Z,99.99
2018-03-24T05:32:16.317Z,99.99
2018-03-24T05:33:16.351Z,99.99
2018-03-24T05:34:16.384Z,99.99
2018-03-24T05:35:16.413Z,99.99
2018-03-24T05:36:16.449Z,99.99
2018-03-24T05:37:16.589Z,99.99
2018-03-24T05:38:16.509Z,99.99
2018-03-24T05:39:16.540Z,99.99
2018-03-24T05:40:16.569Z,99.99
2018-03-24T05:41:16.603Z,99.99
2018-03-24T05:42:16.633Z,99.99
2018-03-24T05:43:16.671Z,99.99
2018-03-24T05:44:16.699Z,99.99
2018-03-24T05:45:16.729Z,99.99
2018-03-24T05:46:16.760Z,99.99
2018-03-24T05:47:16.800Z,99.99
2018-03-24T05:48:16.818Z,99.99
2018-03-24T05:49:16.852Z,99.99
2018-03-24T05:50:16.881Z,99.99
2018-03-24T05:51:16.922Z,99.99
2018-03-24T05:52:16.951Z,99.99
2018-03-24T05:53:17.003Z,99.99
2018-03-24T05:54:17.040Z,99.99
2018-03-24T05:55:17.042Z,99.99
2018-03-24T05:56:17.073Z,99.99
2018-03-24T05:57:17.107Z,99.99
2018-03-24T05:58:17.136Z,99.99
2018-03-24T05:59:17.170Z,99.99
2018-03-24T06:00:17.200Z,99.99
2018-03-24T06:01:17.273Z,99.99
2018-03-24T06:02:17.261Z,99.99
2018-03-24T06:03:17.296Z,99.99
2018-03-24T06:04:17.331Z,99.99
2018-03-24T06:05:17.359Z,99.99
2018-03-24T06:06:17.408Z,99.96
2018-03-24T06:07:17.422Z,99.77
2018-03-24T06:08:17.550Z,99.39
2018-03-24T06:09:17.490Z,99.68
2018-03-24T06:10:17.538Z,99.30
2018-03-24T06:11:17.546Z,99.58
2018-03-24T06:12:17.586Z,99.58
2018-03-24T06:13:17.613Z,99.58
2018-03-24T06:14:17.643Z,99.96
2018-03-24T06:15:17.677Z,99.39
2018-03-24T06:16:17.716Z,99.01
2018-03-24T06:17:17.746Z,98.92
2018-03-24T06:18:17.773Z,99.20
2018-03-24T06:19:17.808Z,98.49
2018-03-24T06:20:17.942Z,98.59
2018-03-24T06:21:17.870Z,98.87
2018-03-24T06:22:17.896Z,98.59
2018-03-24T06:23:17.931Z,98.59
2018-03-24T06:24:17.972Z,98.49
2018-03-24T06:25:18.000Z,98.40
2018-03-24T06:26:18.022Z,98.11
2018-03-24T06:27:18.056Z,98.02
2018-03-24T06:28:18.102Z,97.17
2018-03-24T06:29:18.124Z,97.17
2018-03-24T06:30:18.158Z,97.36
2018-03-24T06:31:18.202Z,96.97
2018-03-24T06:32:18.216Z,96.97
2018-03-24T06:33:18.246Z,97.36
2018-03-24T06:34:18.280Z,96.78
2018-03-24T06:35:18.329Z,97.26
2018-03-24T06:36:18.360Z,97.22
2018-03-24T06:37:18.387Z,97.12
2018-03-24T06:38:18.411Z,97.02
2018-03-24T06:39:18.439Z,96.36
2018-03-24T06:40:18.476Z,96.55
2018-03-24T06:41:18.505Z,96.26
2018-03-24T06:42:18.538Z,95.70
2018-03-24T06:43:18.567Z,95.60
2018-03-24T06:44:18.720Z,95.03
2018-03-24T06:45:18.638Z,95.60
2018-03-24T06:46:18.664Z,95.31
2018-03-24T06:47:18.698Z,94.46
2018-03-24T06:48:18.731Z,94.65
2018-03-24T06:49:18.768Z,95.03
2018-03-24T06:50:18.794Z,94.37
2018-03-24T06:51:18.884Z,94.56
2018-03-24T06:52:18.866Z,94.37
2018-03-24T06:53:18.897Z,94.46
2018-03-24T06:54:18.925Z,94.37
2018-03-24T06:55:18.961Z,94.42
2018-03-24T06:56:18.989Z,94.46
2018-03-24T06:57:19.022Z,93.70
2018-03-24T06:58:19.056Z,94.13
2018-03-24T06:59:19.094Z,93.75
2018-03-24T07:00:19.123Z,94.32
2018-03-24T07:01:19.174Z,93.84
2018-03-24T07:02:19.186Z,93.84
2018-03-24T07:03:19.217Z,93.65
2018-03-24T07:04:19.254Z,93.46
2018-03-24T07:05:19.286Z,93.46
2018-03-24T07:06:19.326Z,92.99
2018-03-24T07:07:19.351Z,93.18
2018-03-24T07:08:19.382Z,93.08
2018-03-24T07:09:19.419Z,93.46
2018-03-24T07:10:19.513Z,93.27
2018-03-24T07:11:19.480Z,93.37
2018-03-24T07:12:19.513Z,93.37
2018-03-24T07:13:19.553Z,93.46
2018-03-24T07:14:19.583Z,93.23
2018-03-24T07:15:19.613Z,92.37
2018-03-24T07:16:19.649Z,92.37
2018-03-24T07:17:19.677Z,92.66
2018-03-24T07:18:19.712Z,92.27
2018-03-24T07:19:19.747Z,92.56
2018-03-24T07:20:19.784Z,91.89
2018-03-24T07:21:19.876Z,91.89
2018-03-24T07:22:19.846Z,91.80
2018-03-24T07:23:19.881Z,91.42
2018-03-24T07:24:19.909Z,91.13
2018-03-24T07:25:19.944Z,90.94
2018-03-24T07:26:19.977Z,91.71
2018-03-24T07:27:20.049Z,91.71
2018-03-24T07:28:20.047Z,91.89
2018-03-24T07:29:20.079Z,91.80
2018-03-24T07:30:20.116Z,92.08
2018-03-24T07:31:20.153Z,91.89
2018-03-24T07:32:20.186Z,91.99
2018-03-24T07:33:20.222Z,91.71
2018-03-24T07:34:20.277Z,91.80
2018-03-24T07:35:20.280Z,91.71
2018-03-24T07:36:20.313Z,91.33
2018-03-24T07:37:20.349Z,90.94
2018-03-24T07:38:20.382Z,90.85
2018-03-24T07:39:20.413Z,90.56
2018-03-24T07:40:20.451Z,91.23
2018-03-24T07:41:20.490Z,90.99
2018-03-24T07:42:20.513Z,90.33
2018-03-24T07:43:20.551Z,90.42
2018-03-24T07:44:20.584Z,89.85
2018-03-24T07:45:20.671Z,90.00
2018-03-24T07:46:20.653Z,90.52
2018-03-24T07:47:20.685Z,90.23
2018-03-24T07:48:20.717Z,90.52
2018-03-24T07:49:20.755Z,90.80
2018-03-24T07:50:20.786Z,90.61
2018-03-24T07:51:20.816Z,90.23
2018-03-24T07:52:20.868Z,90.37
2018-03-24T07:53:20.890Z,90.04
2018-03-24T07:54:20.924Z,90.75
2018-03-24T07:55:20.964Z,90.70
2018-03-24T07:56:20.997Z,90.42
2018-03-24T07:57:21.022Z,90.04
2018-03-24T07:58:21.059Z,89.94
2018-03-24T07:59:21.093Z,89.47
2018-03-24T08:00:21.123Z,89.56
2018-03-24T08:01:21.160Z,89.56
2018-03-24T08:02:21.195Z,89.75
2018-03-24T08:03:21.227Z,89.56
2018-03-24T08:04:21.262Z,89.75
2018-03-24T08:05:21.304Z,90.14
2018-03-24T08:06:21.329Z,90.42
2018-03-24T08:07:21.466Z,90.37
2018-03-24T08:08:21.399Z,90.75
2018-03-24T08:09:21.434Z,91.04
2018-03-24T08:10:21.464Z,91.52
2018-03-24T08:11:21.499Z,91.04
2018-03-24T08:12:21.537Z,91.71
2018-03-24T08:13:21.566Z,91.89
2018-03-24T08:14:21.657Z,93.60
2018-03-24T08:15:21.637Z,92.75
2018-03-24T08:16:21.667Z,93.51
2018-03-24T08:17:21.718Z,92.94
2018-03-24T08:18:21.739Z,92.75
2018-03-24T08:19:21.766Z,92.85
2018-03-24T08:20:21.805Z,92.94
2018-03-24T08:21:21.836Z,91.99
2018-03-24T08:22:21.868Z,91.61
2018-03-24T08:23:21.910Z,91.33
2018-03-24T08:24:21.941Z,90.75
2018-03-24T08:25:21.972Z,90.28
2018-03-24T08:26:22.005Z,89.90
2018-03-24T08:27:22.036Z,90.47
2018-03-24T08:28:22.070Z,90.28
2018-03-24T08:29:22.107Z,90.85
2018-03-24T08:30:22.137Z,91.42
2018-03-24T08:31:22.326Z,90.66
2018-03-24T08:32:22.219Z,90.28
2018-03-24T08:33:22.242Z,89.80
2018-03-24T08:34:22.271Z,89.80
2018-03-24T08:35:22.307Z,89.33
2018-03-24T08:36:22.347Z,88.76
2018-03-24T08:37:22.384Z,88.76
2018-03-24T08:38:22.493Z,89.33
2018-03-24T08:39:22.441Z,89.28
2018-03-24T08:40:22.483Z,89.28
2018-03-24T08:41:22.508Z,88.61
2018-03-24T08:42:22.539Z,88.23
2018-03-24T08:43:22.592Z,87.76
2018-03-24T08:44:22.608Z,87.57
2018-03-24T08:45:22.643Z,86.71
2018-03-24T08:46:22.680Z,86.61
2018-03-24T08:47:22.714Z,87.09
2018-03-24T08:48:22.743Z,87.66
2018-03-24T08:49:22.776Z,88.52
2018-03-24T08:50:22.810Z,88.42
2018-03-24T08:51:22.844Z,87.38
2018-03-24T08:52:22.878Z,86.61
2018-03-24T08:53:22.915Z,86.24
2018-03-24T08:54:22.944Z,86.71
2018-03-24T08:55:23.011Z,86.43
2018-03-24T08:56:23.013Z,86.28
2018-03-24T08:57:23.131Z,86.57
2018-03-24T08:58:23.081Z,86.09
2018-03-24T08:59:23.112Z,86.18
2018-03-24T09:00:23.151Z,84.38
2018-03-24T09:01:23.179Z,83.62
2018-03-24T09:02:23.215Z,83.90
2018-03-24T09:03:23.253Z,83.33
2018-03-24T09:04:23.283Z,83.33
2018-03-24T09:05:23.321Z,84.09
2018-03-24T09:06:23.352Z,84.47
2018-03-24T09:07:23.384Z,84.38
2018-03-24T09:08:23.485Z,85.14
2018-03-24T09:09:23.453Z,84.38
2018-03-24T09:10:23.488Z,84.19
2018-03-24T09:11:23.528Z,83.90
2018-03-24T09:12:23.564Z,84.19
2018-03-24T09:13:23.593Z,83.62
2018-03-24T09:14:23.628Z,84.00
2018-03-24T09:15:23.660Z,82.67
2018-03-24T09:16:23.692Z,81.66
2018-03-24T09:17:23.726Z,80.99
2018-03-24T09:18:23.762Z,81.28
2018-03-24T09:19:23.794Z,80.33
2018-03-24T09:20:23.826Z,80.42
2018-03-24T09:21:23.875Z,80.94
2018-03-24T09:22:23.925Z,80.27
2018-03-24T09:23:23.932Z,79.89
2018-03-24T09:24:23.966Z,78.46
2018-03-24T09:25:24.018Z,78.56
2018-03-24T09:26:24.034Z,76.27
2018-03-24T09:27:24.068Z,75.32
2018-03-24T09:28:24.164Z,75.13
2018-03-24T09:29:24.138Z,74.08
2018-03-24T09:30:24.173Z,73.89
2018-03-24T09:31:24.206Z,72.41
2018-03-24T09:32:24.257Z,71.36
2018-03-24T09:33:24.279Z,71.17
2018-03-24T09:34:24.390Z,70.63
2018-03-24T09:35:24.393Z,71.11
2018-03-24T09:36:24.398Z,70.34
2018-03-24T09:37:24.417Z,71.14
2018-03-24T09:38:24.455Z,69.62
2018-03-24T09:39:24.498Z,67.99
2018-03-24T09:40:24.601Z,67.23
2018-03-24T09:41:24.559Z,68.47
2018-03-24T09:42:24.597Z,68.47
2018-03-24T09:43:24.631Z,67.80
2018-03-24T09:44:24.666Z,67.04
2018-03-24T09:45:24.704Z,67.14
2018-03-24T09:46:24.748Z,67.14
2018-03-24T09:47:24.959Z,67.52
2018-03-24T09:48:24.811Z,66.75
2018-03-24T09:49:24.847Z,66.09
2018-03-24T09:50:24.892Z,66.28
2018-03-24T09:51:24.918Z,66.28
2018-03-24T09:52:24.955Z,65.80
2018-03-24T09:53:24.996Z,63.89
2018-03-24T09:54:25.034Z,64.69
2018-03-24T09:55:25.157Z,64.94
2018-03-24T09:56:25.107Z,64.37
2018-03-24T09:57:25.139Z,63.51
2018-03-24T09:58:25.172Z,63.80
2018-03-24T09:59:25.212Z,63.60
2018-03-24T10:00:25.247Z,63.73
2018-03-24T10:01:25.282Z,63.83
2018-03-24T10:02:25.323Z,64.31
2018-03-24T10:03:25.367Z,64.59
2018-03-24T10:04:25.397Z,63.51
2018-03-24T10:05:25.428Z,63.13
2018-03-24T10:06:25.547Z,63.04
2018-03-24T10:07:25.502Z,63.13
2018-03-24T10:08:25.538Z,63.80
2018-03-24T10:09:25.578Z,63.13
2018-03-24T10:10:25.620Z,63.70
2018-03-24T10:11:25.648Z,64.37
2018-03-24T10:12:25.690Z,64.18
2018-03-24T10:13:25.720Z,63.70
2018-03-24T10:14:25.759Z,64.62
2018-03-24T10:15:25.794Z,65.42
2018-03-24T10:16:25.836Z,64.65
2018-03-24T10:17:25.869Z,64.28
2018-03-24T10:18:25.918Z,64.18
2018-03-24T10:19:25.942Z,64.18
2018-03-24T10:20:25.985Z,64.94
2018-03-24T10:21:26.021Z,63.70
2018-03-24T10:22:26.101Z,64.18
2018-03-24T10:23:26.102Z,63.32
2018-03-24T10:24:26.125Z,64.18
2018-03-24T10:25:26.162Z,64.28
2018-03-24T10:26:26.208Z,64.28
2018-03-24T10:27:26.235Z,63.83
2018-03-24T10:28:26.276Z,63.07
2018-03-24T10:29:26.310Z,62.30
2018-03-24T10:30:26.349Z,62.84
2018-03-24T10:31:26.381Z,61.80
2018-03-24T10:32:26.430Z,62.37
2018-03-24T10:33:26.510Z,62.65
2018-03-24T10:34:26.496Z,62.46
2018-03-24T10:35:26.591Z,63.13
2018-03-24T10:36:26.574Z,62.46
2018-03-24T10:37:26.603Z,60.94
2018-03-24T10:38:26.640Z,60.21
2018-03-24T10:39:26.676Z,61.07
2018-03-24T10:40:26.815Z,61.54
2018-03-24T10:41:26.754Z,60.58
2018-03-24T10:42:26.793Z,60.58
2018-03-24T10:43:26.823Z,61.16
2018-03-24T10:44:26.866Z,61.44
2018-03-24T10:45:26.904Z,60.87
2018-03-24T10:46:26.935Z,60.94
2018-03-24T10:47:27.058Z,60.75
2018-03-24T10:48:27.010Z,60.65
2018-03-24T10:49:27.050Z,61.04
2018-03-24T10:50:27.186Z,61.04
2018-03-24T10:51:27.121Z,61.41
2018-03-24T10:52:27.171Z,61.60
2018-03-24T10:53:27.199Z,62.37
2018-03-24T10:54:27.235Z,63.13
2018-03-24T10:55:27.269Z,62.75
2018-03-24T10:56:27.306Z,62.27
2018-03-24T10:57:27.365Z,61.70
2018-03-24T10:58:27.384Z,61.99
2018-03-24T10:59:27.424Z,61.13
2018-03-24T11:00:27.455Z,61.41
2018-03-24T11:01:27.496Z,60.65
2018-03-24T11:02:27.535Z,60.55
2018-03-24T11:03:27.566Z,62.37
2018-03-24T11:04:27.603Z,61.41
2018-03-24T11:05:27.680Z,61.41
2018-03-24T11:06:27.679Z,62.46
2018-03-24T11:07:27.715Z,61.80
2018-03-24T11:08:27.754Z,61.41
2018-03-24T11:09:27.841Z,61.07
2018-03-24T11:10:27.833Z,59.82
2018-03-24T11:11:27.864Z,59.34
2018-03-24T11:12:27.905Z,58.97
2018-03-24T11:13:27.941Z,58.39
2018-03-24T11:14:27.975Z,58.14
2018-03-24T11:15:28.011Z,57.75
2018-03-24T11:16:28.155Z,57.28
2018-03-24T11:17:28.084Z,56.89
2018-03-24T11:18:28.121Z,56.99
2018-03-24T11:19:28.160Z,56.32
2018-03-24T11:20:28.207Z,55.27
2018-03-24T11:21:28.238Z,56.80
2018-03-24T11:22:28.271Z,57.06
2018-03-24T11:23:28.528Z,56.67
2018-03-24T11:24:28.346Z,57.15
2018-03-24T11:25:28.388Z,57.43
2018-03-24T11:26:28.423Z,57.82
2018-03-24T11:27:28.465Z,57.72
2018-03-24T11:28:28.504Z,57.43
2018-03-24T11:29:28.647Z,57.24
2018-03-24T11:30:28.581Z,58.65
2018-03-24T11:31:28.617Z,59.22
2018-03-24T11:32:28.647Z,59.99
2018-03-24T11:33:28.690Z,60.58
2018-03-24T11:34:28.748Z,59.16
2018-03-24T11:35:28.762Z,60.30
2018-03-24T11:36:28.813Z,60.21
2018-03-24T11:37:28.839Z,59.53
2018-03-24T11:38:28.877Z,57.82
2018-03-24T11:39:28.918Z,57.15
2018-03-24T11:40:28.950Z,58.58
2018-03-24T11:41:28.988Z,58.29
2018-03-24T11:42:29.023Z,58.48
2018-03-24T11:43:29.065Z,57.75
2018-03-24T11:44:29.106Z,57.24
2018-03-24T11:45:29.135Z,57.18
2018-03-24T11:46:29.172Z,56.51
2018-03-24T11:47:29.208Z,55.55
2018-03-24T11:48:29.248Z,55.46
2018-03-24T11:49:29.378Z,56.60
2018-03-24T11:50:29.322Z,56.89
2018-03-24T11:51:29.374Z,55.65
2018-03-24T11:52:29.399Z,56.04
2018-03-24T11:53:29.435Z,56.51
2018-03-24T11:54:29.471Z,55.46
2018-03-24T11:55:29.509Z,57.40
2018-03-24T11:56:29.564Z,55.40
2018-03-24T11:57:29.590Z,54.44
2018-03-24T11:58:29.623Z,55.49
2018-03-24T11:59:29.662Z,55.46
2018-03-24T12:00:29.700Z,54.60
2018-03-24T12:01:29.740Z,54.72
2018-03-24T12:02:29.774Z,53.67
2018-03-24T12:03:29.813Z,53.49
2018-03-24T12:04:29.852Z,54.44
2018-03-24T12:05:29.891Z,53.49
2018-03-24T12:06:29.928Z,54.27
2018-03-24T12:07:29.964Z,53.96
2018-03-24T12:08:30.007Z,53.00
2018-03-24T12:09:30.043Z,53.45
2018-03-24T12:10:30.076Z,54.60
2018-03-24T12:11:30.114Z,55.18
2018-03-24T12:12:30.153Z,56.13
2018-03-24T12:13:30.202Z,54.60
2018-03-24T12:14:30.241Z,54.82
2018-03-24T12:15:30.266Z,53.29
2018-03-24T12:16:30.377Z,53.39
2018-03-24T12:17:30.351Z,52.91
2018-03-24T12:18:30.382Z,52.43
2018-03-24T12:19:30.440Z,53.49
2018-03-24T12:20:30.460Z,53.00
2018-03-24T12:21:30.502Z,53.67
2018-03-24T12:22:30.537Z,53.67
2018-03-24T12:23:30.574Z,53.49
2018-03-24T12:24:30.612Z,53.10
2018-03-24T12:25:30.657Z,52.53
2018-03-24T12:26:30.694Z,51.76
2018-03-24T12:27:30.833Z,51.38
2018-03-24T12:28:30.764Z,51.67
2018-03-24T12:29:30.803Z,52.53
2018-03-24T12:30:30.840Z,53.10
2018-03-24T12:31:30.885Z,51.57
2018-03-24T12:32:30.919Z,52.43
2018-03-24T12:33:30.961Z,53.49
2018-03-24T12:34:30.996Z,52.62
2018-03-24T12:35:31.090Z,52.43
2018-03-24T12:36:31.118Z,53.39
2018-03-24T12:37:31.108Z,53.67
2018-03-24T12:38:31.149Z,51.86
2018-03-24T12:39:31.220Z,51.19
2018-03-24T12:40:31.223Z,52.34
2018-03-24T12:41:31.268Z,54.13
2018-03-24T12:42:31.299Z,54.03
2018-03-24T12:43:31.338Z,54.60
2018-03-24T12:44:31.375Z,55.01
2018-03-24T12:45:31.417Z,54.63
2018-03-24T12:46:31.472Z,54.44
2018-03-24T12:47:31.494Z,54.25
2018-03-24T12:48:31.528Z,54.15
2018-03-24T12:49:31.568Z,53.58
2018-03-24T12:50:31.610Z,53.20
2018-03-24T12:51:31.653Z,52.24
2018-03-24T12:52:31.682Z,52.62